Portada
METAR-TAF:

METAR-TAF

Aeroports :

Butterworth, Malàisia

latitud: 05-27-58N, longitud: 100-23-28E, altitud: 2 m

Observació

L'informe es va fer fa 57 minuts, a les 18:00 UTC
Vent calma
Temperatura 28°C
Humitat 94%
Pressió 1010 hPa
Visibilitat: 8000 m
Escasses núvols a una alçada de 2400 ft

METAR: WMKB 011800Z 00000KT 8000 FEW024 28/27 Q1010 NOSIG

Hora: 02:57 (18:57 UTC)

Pronòstic

L'informe es va fer fa 1 hora i 57 minuts, a les 17:00 UTC
Pronòstic vàlid del 01 a les 18 UTC al 02 a les 18 UTC
Vent 3 kt amb direcció variable
Visibilitat: 8000 m
Escasses núvols a una alçada de 2400 ft
Evolucionant progressivament
l' 02 a les 03 UTC al 02 a les 05 UTC
Vent 8 kt del Sud-Oest
Visibilitat 10 km o més
Escasses núvols a una alçada de 2000 ft

TAF: WMKB 011700Z 0118/0218 VRB03KT 8000 FEW024 BECMG 0203/0205 22008KT 9999 FEW020

Observacions i pronòstics meteorològics de més de 4000 aeroports (METAR i TAF).

Les estacions disponibles són els punts grocs i vermells al mapa.

Posi el ratolí al punt desitjat per veure el nom de l'estació.

Feu clic per veure les observacions i els pronòstics meteorològics.

Per canviar el mapa: feu clic els botons verds amb una creu de color negre per apropar; al botó verd amb un guió per allunyar la imatge; o en les fletxes verdes per a mapes adjacents.


METAR-TAF: